Current Weather Conditions: station NFBF1

sailwx.info

Wind from 130 at 12 knots gusting 16

Air temperature 30.2° C

Last reported at 2014-Sep-01 16:54 UTC.
Time now 2014-Sep-01 19:01 UTC

Location: N 25°05' W 081°05'.
View on Google Maps.

See reports from other nearby stations

  
Tides and Currents Weather Stations Pressure Air Temp Water Temp Dewpoint Dewpoint Depression Visibility Wind Speed Wind Dir Waves Ship Positions
date/time (UTC)wind fromknots sea level pressurealtimeterstation pressurevisibilityair tempwater tempwave heightnotes
2014-Sep-01 16:54 130 12 gusting 16 30.2
2014-Sep-01 16:48 130 12 gusting 15 30.2
2014-Sep-01 16:42 130 13 gusting 15 30.2
2014-Sep-01 16:36 130 12 gusting 16 30.2
2014-Sep-01 16:30 130 13 gusting 15 30.2
2014-Sep-01 16:24 130 14 gusting 16 30.2
2014-Sep-01 16:18 120 12 gusting 16 30.3
2014-Sep-01 16:12 120 14 gusting 17 30.3
2014-Sep-01 16:06 120 13 gusting 16 30.3
2014-Sep-01 16:00 120 13 gusting 15 30.2
2014-Sep-01 15:54 120 13 gusting 15 30.2
2014-Sep-01 15:48 120 12 gusting 14 30.1
2014-Sep-01 14:54 120 13 gusting 15 30.0
2014-Sep-01 14:48 120 13 gusting 15 30.0
2014-Sep-01 13:54 120 10 gusting 12 29.8
2014-Sep-01 13:48 120 9 gusting 11 29.7
2014-Sep-01 12:54 120 12 gusting 13 30.0
2014-Sep-01 12:48 120 12 gusting 14 30.0
2014-Sep-01 12:42 120 13 gusting 15 29.9
2014-Sep-01 12:36 110 14 gusting 16 30.0
2014-Sep-01 12:30 120 14 gusting 16 29.9
2014-Sep-01 12:24 120 13 gusting 15 29.9
2014-Sep-01 12:18 110 13 gusting 15 29.9
2014-Sep-01 12:12 110 13 gusting 15 29.9
2014-Sep-01 12:06 110 13 gusting 14 29.8
2014-Sep-01 12:00 090 9 gusting 13 29.1
2014-Sep-01 11:54 080 10 gusting 11 29.0
2014-Sep-01 11:48 080 10 gusting 13 28.9
2014-Sep-01 11:42 080 9 gusting 10 28.9
2014-Sep-01 11:36 080 9 gusting 10 28.9
2014-Sep-01 11:30 080 7 gusting 8 28.8
2014-Sep-01 11:24 080 7 gusting 8 28.8
2014-Sep-01 11:18 080 7 gusting 8 28.7
2014-Sep-01 11:12 080 7 gusting 8 28.5
2014-Sep-01 11:06 080 7 gusting 9 28.5
2014-Sep-01 11:00 080 8 gusting 10 28.5
2014-Sep-01 10:54 080 9 gusting 10 28.5
2014-Sep-01 10:48 090 9 gusting 10 28.7
2014-Sep-01 09:54 080 9 gusting 11 28.7
2014-Sep-01 09:48 070 9 gusting 10 28.7
2014-Sep-01 09:42 080 8 gusting 10 28.9
2014-Sep-01 09:36 080 9 gusting 10 28.8
2014-Sep-01 09:30 080 9 gusting 10 28.8
2014-Sep-01 09:24 080 9 gusting 10 28.9
2014-Sep-01 09:18 080 9 gusting 10 28.8
2014-Sep-01 09:12 080 9 gusting 11 28.7
2014-Sep-01 09:06 080 10 gusting 12 28.6
2014-Sep-01 09:00 080 10 gusting 11 28.6
2014-Sep-01 08:54 080 10 gusting 11 28.7
2014-Sep-01 08:48 080 10 gusting 11 28.7
2014-Sep-01 08:42 080 10 gusting 13 28.7
2014-Sep-01 08:36 080 10 gusting 12 28.8
2014-Sep-01 08:30 080 11 gusting 13 28.7
2014-Sep-01 08:24 080 10 gusting 12 28.9
2014-Sep-01 08:18 080 10 gusting 12 28.9
2014-Sep-01 08:12 070 10 gusting 12 28.9
2014-Sep-01 08:06 080 10 gusting 12 28.9
2014-Sep-01 08:00 080 11 gusting 13 28.8
2014-Sep-01 07:54 080 11 gusting 12 28.9
2014-Sep-01 07:48 080 11 gusting 13 28.9
2014-Sep-01 06:54 080 11 gusting 13 28.9
2014-Sep-01 06:48 080 11 gusting 13 29.0
2014-Sep-01 06:42 080 12 gusting 14 28.9
2014-Sep-01 06:36 080 12 gusting 14 29.0
2014-Sep-01 06:30 080 12 gusting 14 29.0
2014-Sep-01 06:24 080 13 gusting 14 29.0
2014-Sep-01 06:18 080 12 gusting 14 29.0
2014-Sep-01 06:12 080 12 gusting 14 29.0
2014-Sep-01 06:06 080 12 gusting 13 29.0
2014-Sep-01 06:00 080 12 gusting 14 29.0
2014-Sep-01 05:54 080 13 gusting 15 28.9
2014-Sep-01 05:48 070 12 gusting 14 29.0
2014-Sep-01 04:54 090 11 gusting 13 30.1
2014-Sep-01 04:48 100 12 gusting 14 30.1
2014-Sep-01 03:54 070 11 gusting 13 29.9
2014-Sep-01 03:48 100 12 gusting 14 30.3
2014-Sep-01 02:54 110 12 gusting 16 30.4
2014-Sep-01 02:48 120 13 gusting 14 30.5
2014-Sep-01 01:54 120 13 gusting 15 30.5
2014-Sep-01 01:48 120 14 gusting 17 30.6
2014-Sep-01 01:42 110 13 gusting 16 30.5
2014-Sep-01 01:36 110 14 gusting 16 30.5
2014-Sep-01 01:30 110 12 gusting 15 30.5
2014-Sep-01 01:24 100 12 gusting 14 30.5
2014-Sep-01 01:18 110 12 gusting 14 30.5
2014-Sep-01 01:12 110 11 gusting 14 30.5
2014-Sep-01 01:06 110 11 gusting 13 30.5
2014-Sep-01 01:00 110 11 gusting 14 30.5
2014-Sep-01 00:54 120 12 gusting 15 30.6
2014-Sep-01 00:48 110 12 gusting 15 30.5
2014-Aug-31 23:30 130 14 gusting 16 30.5
2014-Aug-31 23:24 120 15 gusting 18 30.5
2014-Aug-31 23:18 120 13 gusting 16 30.5
2014-Aug-31 23:12 130 12 gusting 14 30.5
2014-Aug-31 23:06 130 13 gusting 15 30.5
2014-Aug-31 23:00 130 12 gusting 15 30.6
2014-Aug-31 22:54 130 12 gusting 16 30.6
2014-Aug-31 22:48 130 13 gusting 16 30.6
2014-Aug-31 21:54 140 14 gusting 18 30.8
2014-Aug-31 21:48 140 15 gusting 20 30.7
2014-Aug-31 20:54 130 18 gusting 20 30.7
2014-Aug-31 20:48 130 16 gusting 20 30.7
2014-Aug-31 19:54 120 15 gusting 18 30.5
2014-Aug-31 19:48 120 16 gusting 19 30.6
2014-Aug-31 18:54 120 14 gusting 19 30.5
2014-Aug-31 18:48 120 15 gusting 19 30.5
2014-Aug-31 17:54 120 16 gusting 19 30.5
2014-Aug-31 17:48 110 16 gusting 19 30.5
2014-Aug-31 16:54 120 15 gusting 18 30.4
2014-Aug-31 16:48 110 16 gusting 18 30.4
2014-Aug-31 16:42 120 16 gusting 19 30.4
2014-Aug-31 16:36 110 18 gusting 20 30.5
2014-Aug-31 16:30 110 18 gusting 20 30.4
2014-Aug-31 16:24 110 18 gusting 20 30.5
2014-Aug-31 16:18 110 17 gusting 20 30.4
2014-Aug-31 16:12 110 17 gusting 19 30.4
2014-Aug-31 16:06 110 17 gusting 20 30.4
2014-Aug-31 16:00 110 18 gusting 20 30.4
2014-Aug-31 15:54 110 17 gusting 19 30.3
2014-Aug-31 15:48 100 17 gusting 20 30.3
2014-Aug-31 15:42 100 17 gusting 19 30.3
2014-Aug-31 15:36 100 17 gusting 20 30.3
2014-Aug-31 15:30 100 18 gusting 20 30.3
2014-Aug-31 15:24 100 18 gusting 20 30.2
2014-Aug-31 15:18 100 17 gusting 20 30.2
2014-Aug-31 15:12 110 17 gusting 19 30.2
2014-Aug-31 15:06 110 16 gusting 19 30.2
2014-Aug-31 15:00 100 16 gusting 19 30.2
2014-Aug-31 14:54 110 16 gusting 18 30.2
2014-Aug-31 14:48 110 16 gusting 19 30.2
2014-Aug-31 13:54 100 16 gusting 19 30.1
2014-Aug-31 13:48 110 16 gusting 19 30.0
2014-Aug-31 13:42 110 15 gusting 18 29.9
2014-Aug-31 13:36 110 15 gusting 18 29.8
2014-Aug-31 13:30 110 15 gusting 17 29.7
2014-Aug-31 13:24 110 15 gusting 17 29.8
2014-Aug-31 13:18 110 15 gusting 17 29.8
2014-Aug-31 13:12 110 16 gusting 18 29.8
2014-Aug-31 13:06 110 15 gusting 18 29.8
2014-Aug-31 13:00 110 15 gusting 17 29.8
2014-Aug-31 12:54 110 15 gusting 16 29.8
2014-Aug-31 12:48 110 15 gusting 18 29.8
2014-Aug-31 11:54 090 13 gusting 14 29.0
2014-Aug-31 11:48 080 12 gusting 14 28.8
2014-Aug-31 10:54 090 12 gusting 14 29.0
2014-Aug-31 10:48 090 13 gusting 15 29.4
2014-Aug-31 09:54 080 9 gusting 11 29.4
2014-Aug-31 09:48 070 9 gusting 12 29.3
2014-Aug-31 09:42 070 8 gusting 10 29.4
2014-Aug-31 09:36 090 10 gusting 13 29.8
2014-Aug-31 09:30 110 11 gusting 14 29.8
2014-Aug-31 09:24 110 9 gusting 13 29.7
2014-Aug-31 09:18 100 9 gusting 11 29.7
2014-Aug-31 09:12 110 7 gusting 9 29.5
2014-Aug-31 09:06 100 9 gusting 11 29.4
2014-Aug-31 09:00 100 10 gusting 12 29.3
2014-Aug-31 08:54 080 11 gusting 13 29.2
2014-Aug-31 08:48 090 10 gusting 13 29.5
2014-Aug-31 08:30 110 8 gusting 10 29.9
2014-Aug-31 08:24 110 9 gusting 12 30.0
2014-Aug-31 08:18 110 7 gusting 9 30.0
2014-Aug-31 08:12 110 8 gusting 10 30.1
2014-Aug-31 08:06 120 9 gusting 10 30.1
2014-Aug-31 08:00 120 10 gusting 12 30.2
2014-Aug-31 07:54 130 10 gusting 12 30.2
2014-Aug-31 07:48 130 11 gusting 13 30.3
2014-Aug-31 06:54 120 12 gusting 14 30.3
2014-Aug-31 06:48 130 14 gusting 16 30.4
2014-Aug-31 06:42 130 13 gusting 15 30.4
2014-Aug-31 06:36 130 12 gusting 14 30.3
2014-Aug-31 06:30 140 12 gusting 14 30.3
2014-Aug-31 06:24 140 12 gusting 15 30.4
2014-Aug-31 06:18 140 14 gusting 16 30.4
2014-Aug-31 06:12 140 15 gusting 18 30.4
2014-Aug-31 06:06 140 14 gusting 16 30.4
2014-Aug-31 06:00 140 10 gusting 14 30.2
2014-Aug-31 05:54 140 9 gusting 12 30.1
2014-Aug-31 05:48 140 9 gusting 11 29.9
2014-Aug-31 05:42 160 10 gusting 12 29.6
2014-Aug-31 05:36 170 12 gusting 15 29.7
2014-Aug-31 05:30 150 12 gusting 16 30.4
2014-Aug-31 05:24 130 15 gusting 17 30.7
2014-Aug-31 05:18 130 12 gusting 15 30.6
2014-Aug-31 05:12 130 12 gusting 15 30.7
2014-Aug-31 05:06 120 12 gusting 14 30.7
2014-Aug-31 05:00 130 13 gusting 15 30.7
2014-Aug-31 04:54 120 12 gusting 15 30.7
2014-Aug-31 04:48 130 12 gusting 15 30.7
2014-Aug-31 03:54 130 14 gusting 17 30.5
2014-Aug-31 03:48 130 16 gusting 18 30.5
2014-Aug-31 03:42 140 14 gusting 17 30.5
2014-Aug-31 03:36 140 15 gusting 18 30.4
2014-Aug-31 03:30 130 13 gusting 15 30.4
2014-Aug-31 03:24 130 13 gusting 17 30.5
2014-Aug-31 03:18 130 14 gusting 18 30.5
2014-Aug-31 03:12 130 15 gusting 17 30.5
2014-Aug-31 03:06 130 14 gusting 17 30.5
2014-Aug-31 03:00 130 16 gusting 18 30.5
2014-Aug-31 02:54 140 16 gusting 19 30.4
2014-Aug-31 02:48 140 16 gusting 19 30.4
2014-Aug-31 01:54 160 16 gusting 19 30.1
2014-Aug-31 01:48 140 15 gusting 19 30.4
2014-Aug-31 00:54 120 14 gusting 17 30.9
2014-Aug-31 00:48 120 16 gusting 18 31.0
2014-Aug-30 22:54 110 16 gusting 20 30.8
2014-Aug-30 22:48 110 15 gusting 17 30.8
2014-Aug-30 22:42 120 16 gusting 19 30.9
2014-Aug-30 22:36 110 16 gusting 19 30.9
2014-Aug-30 22:30 110 16 gusting 19 30.8
2014-Aug-30 22:24 110 16 gusting 18 30.8
2014-Aug-30 22:18 110 15 gusting 19 30.8
2014-Aug-30 22:12 110 15 gusting 18 30.9
2014-Aug-30 22:06 120 14 gusting 17 30.8
2014-Aug-30 22:00 110 14 gusting 19 30.8
2014-Aug-30 21:54 110 15 gusting 18 30.8
2014-Aug-30 21:48 110 15 gusting 17 30.7
2014-Aug-30 20:54 110 13 gusting 16 30.8
2014-Aug-30 20:48 120 14 gusting 17 30.8
2014-Aug-30 20:42 120 14 gusting 17 30.8
2014-Aug-30 20:36 120 13 gusting 17 30.8
2014-Aug-30 20:30 120 14 gusting 18 30.7
2014-Aug-30 20:24 110 13 gusting 16 30.8
2014-Aug-30 20:18 110 14 gusting 16 30.7
2014-Aug-30 20:12 110 13 gusting 15 30.7
2014-Aug-30 20:06 120 13 gusting 18 30.8
2014-Aug-30 20:00 120 13 gusting 16 30.7
2014-Aug-30 19:54 120 13 gusting 17 30.8
2014-Aug-30 19:48 120 14 gusting 18 30.8